Time,TemperatureF,DewpointF,PressureIn,WindDirection,WindDirectionDegrees,WindSpeedMPH,WindSpeedGustMPH,Humidity,HourlyPrecipIn,Conditions,Clouds,dailyrainin,SoftwareType,DateUTC
2013-04-12 00:02:00,31.9,30.0,30.14,WNW,292,0.0,3.0,94,0.06,,,0.00,weatherlink.com 1.10,2013-04-12 04:02:00,
2013-04-12 00:18:00,31.9,30.0,30.14,NW,310,0.0,1.0,94,0.08,,,0.02,weatherlink.com 1.10,2013-04-12 04:18:00,
2013-04-12 00:33:00,31.8,30.0,30.13,NW,310,0.0,0.0,94,0.08,,,0.04,weatherlink.com 1.10,2013-04-12 04:33:00,
2013-04-12 00:48:00,31.8,30.0,30.14,West,269,0.0,2.0,94,0.08,,,0.06,weatherlink.com 1.10,2013-04-12 04:48:00,
2013-04-12 01:03:00,31.8,30.0,30.13,SW,228,0.0,1.0,94,0.06,,,0.06,weatherlink.com 1.10,2013-04-12 05:03:00,
2013-04-12 01:18:00,32.0,31.0,30.12,SW,228,0.0,0.0,95,0.04,,,0.06,weatherlink.com 1.10,2013-04-12 05:18:00,
2013-04-12 01:33:00,31.7,30.0,30.12,SW,229,0.0,2.0,94,0.02,,,0.06,weatherlink.com 1.10,2013-04-12 05:33:00,
2013-04-12 01:48:00,32.0,31.0,30.12,SW,229,0.0,0.0,95,0.00,,,0.06,weatherlink.com 1.10,2013-04-12 05:48:00,
2013-04-12 02:03:00,32.0,31.0,30.11,SW,229,0.0,0.0,95,0.00,,,0.06,weatherlink.com 1.10,2013-04-12 06:03:00,
2013-04-12 02:18:00,31.8,31.0,30.11,ESE,107,0.0,1.0,95,0.00,,,0.06,weatherlink.com 1.10,2013-04-12 06:18:00,
2013-04-12 02:34:00,31.5,30.0,30.11,NNE,26,0.0,2.0,95,0.00,,,0.06,weatherlink.com 1.10,2013-04-12 06:34:00,
2013-04-12 02:49:00,31.5,30.0,30.10,NNE,27,0.0,1.0,95,0.00,,,0.06,weatherlink.com 1.10,2013-04-12 06:49:00,
2013-04-12 03:04:00,31.6,30.0,30.11,NNE,27,0.0,0.0,95,0.00,,,0.06,weatherlink.com 1.10,2013-04-12 07:04:00,
2013-04-12 03:19:00,31.7,31.0,30.11,NNE,27,0.0,0.0,96,0.00,,,0.06,weatherlink.com 1.10,2013-04-12 07:19:00,
2013-04-12 03:34:00,31.9,31.0,30.10,NNE,27,0.0,0.0,96,0.00,,,0.06,weatherlink.com 1.10,2013-04-12 07:34:00,
2013-04-12 03:49:00,32.1,31.0,30.09,NNE,27,0.0,0.0,96,0.00,,,0.06,weatherlink.com 1.10,2013-04-12 07:49:00,
2013-04-12 04:04:00,32.4,31.0,30.09,ENE,65,0.0,1.0,96,0.01,,,0.07,weatherlink.com 1.10,2013-04-12 08:04:00,
2013-04-12 04:19:00,32.4,31.0,30.09,ENE,65,0.0,0.0,96,0.02,,,0.08,weatherlink.com 1.10,2013-04-12 08:19:00,
2013-04-12 04:35:00,32.5,32.0,30.09,ENE,65,0.0,0.0,97,0.02,,,0.08,weatherlink.com 1.10,2013-04-12 08:35:00,
2013-04-12 04:52:00,32.7,32.0,30.07,ENE,65,0.0,0.0,97,0.01,,,0.08,weatherlink.com 1.10,2013-04-12 08:52:00,
2013-04-12 05:04:00,32.6,32.0,30.07,ENE,65,0.0,0.0,97,0.01,,,0.08,weatherlink.com 1.10,2013-04-12 09:04:00,
2013-04-12 05:22:00,32.7,32.0,30.07,East,94,0.0,1.0,97,0.00,,,0.08,weatherlink.com 1.10,2013-04-12 09:22:00,
2013-04-12 05:35:00,32.8,32.0,30.07,East,96,0.0,2.0,97,0.00,,,0.08,weatherlink.com 1.10,2013-04-12 09:35:00,
2013-04-12 05:52:00,32.9,32.0,30.07,East,90,0.0,2.0,97,0.01,,,0.09,weatherlink.com 1.10,2013-04-12 09:52:00,
2013-04-12 06:05:00,32.9,32.0,30.07,East,90,0.0,1.0,97,0.01,,,0.09,weatherlink.com 1.10,2013-04-12 10:05:00,
2013-04-12 06:35:00,33.4,33.0,30.04,ENE,75,0.0,4.0,97,0.02,,,0.10,weatherlink.com 1.10,2013-04-12 10:35:00,
2013-04-12 06:52:00,33.6,33.0,30.04,SE,129,0.0,3.0,97,0.01,,,0.10,weatherlink.com 1.10,2013-04-12 10:52:00,
2013-04-12 07:06:00,33.5,33.0,30.03,SE,128,1.0,1.0,97,0.02,,,0.11,weatherlink.com 1.10,2013-04-12 11:06:00,
2013-04-12 07:22:00,33.8,33.0,30.02,ESE,119,0.0,2.0,97,0.02,,,0.12,weatherlink.com 1.10,2013-04-12 11:22:00,
2013-04-12 07:36:00,34.0,33.0,30.02,ESE,119,0.0,0.0,97,0.02,,,0.12,weatherlink.com 1.10,2013-04-12 11:36:00,
2013-04-12 07:52:00,34.2,34.0,30.01,ESE,123,0.0,2.0,98,0.02,,,0.12,weatherlink.com 1.10,2013-04-12 11:52:00,
2013-04-12 08:06:00,34.2,34.0,30.01,SSE,158,0.0,3.0,97,0.01,,,0.12,weatherlink.com 1.10,2013-04-12 12:06:00,
2013-04-12 08:22:00,34.3,34.0,30.00,SSE,156,1.0,1.0,97,0.00,,,0.12,weatherlink.com 1.10,2013-04-12 12:22:00,
2013-04-12 08:52:00,35.1,34.0,29.98,South,180,4.0,4.0,97,0.00,,,0.12,weatherlink.com 1.10,2013-04-12 12:52:00,
2013-04-12 09:06:00,35.4,35.0,29.97,SE,126,1.0,7.0,97,0.00,,,0.12,weatherlink.com 1.10,2013-04-12 13:06:00,
2013-04-12 09:22:00,35.6,35.0,29.97,SSE,157,0.0,4.0,97,0.00,,,0.12,weatherlink.com 1.10,2013-04-12 13:22:00,
2013-04-12 09:37:00,35.7,35.0,29.95,SE,125,0.0,6.0,96,0.04,,,0.16,weatherlink.com 1.10,2013-04-12 13:37:00,
2013-04-12 09:52:00,35.7,35.0,29.94,SE,134,1.0,5.0,96,0.08,,,0.20,weatherlink.com 1.10,2013-04-12 13:52:00,
2013-04-12 10:07:00,35.8,35.0,29.95,ESE,119,3.0,6.0,96,0.09,,,0.21,weatherlink.com 1.10,2013-04-12 14:07:00,
2013-04-12 10:22:00,35.8,35.0,29.96,SSW,194,4.0,6.0,96,0.11,,,0.23,weatherlink.com 1.10,2013-04-12 14:22:00,
2013-04-12 10:37:00,35.9,35.0,29.93,SE,128,3.0,7.0,97,0.11,,,0.27,weatherlink.com 1.10,2013-04-12 14:37:00,
2013-04-12 11:07:00,36.0,35.0,29.95,SSE,149,2.0,8.0,97,0.13,,,0.34,weatherlink.com 1.10,2013-04-12 15:07:00,
2013-04-12 11:22:00,36.0,35.0,29.93,SSW,196,0.0,8.0,97,0.12,,,0.35,weatherlink.com 1.10,2013-04-12 15:22:00,
2013-04-12 11:37:00,35.9,35.0,29.93,SE,140,0.0,7.0,97,0.09,,,0.36,weatherlink.com 1.10,2013-04-12 15:37:00,
2013-04-12 11:53:00,36.0,35.0,29.93,South,183,1.0,8.0,97,0.07,,,0.37,weatherlink.com 1.10,2013-04-12 15:53:00,
2013-04-12 12:08:00,36.3,36.0,29.94,ESE,117,0.0,9.0,97,0.04,,,0.38,weatherlink.com 1.10,2013-04-12 16:08:00,
2013-04-12 12:23:00,36.3,35.0,29.93,SSW,194,6.0,10.0,96,0.03,,,0.38,weatherlink.com 1.10,2013-04-12 16:23:00,
2013-04-12 12:38:00,36.3,35.0,29.92,SSE,150,1.0,10.0,96,0.03,,,0.39,weatherlink.com 1.10,2013-04-12 16:38:00,
2013-04-12 12:53:00,36.8,36.0,29.91,SE,131,1.0,6.0,96,0.02,,,0.39,weatherlink.com 1.10,2013-04-12 16:53:00,
2013-04-12 13:08:00,37.2,36.0,29.90,East,90,1.0,8.0,96,0.01,,,0.39,weatherlink.com 1.10,2013-04-12 17:08:00,
2013-04-12 13:23:00,37.4,36.0,29.90,SE,139,1.0,9.0,96,0.01,,,0.39,weatherlink.com 1.10,2013-04-12 17:23:00,
2013-04-12 13:38:00,37.5,37.0,29.89,SSE,153,2.0,6.0,96,0.00,,,0.39,weatherlink.com 1.10,2013-04-12 17:38:00,
2013-04-12 13:53:00,37.7,37.0,29.88,SE,140,0.0,4.0,96,0.00,,,0.39,weatherlink.com 1.10,2013-04-12 17:53:00,
2013-04-12 14:09:00,37.7,37.0,29.88,ENE,71,1.0,6.0,96,0.00,,,0.39,weatherlink.com 1.10,2013-04-12 18:09:00,
2013-04-12 14:24:00,37.7,37.0,29.86,East,89,0.0,6.0,96,0.00,,,0.39,weatherlink.com 1.10,2013-04-12 18:24:00,
2013-04-12 15:39:00,38.4,38.0,29.82,SE,146,2.0,7.0,97,0.00,,,0.40,weatherlink.com 1.10,2013-04-12 19:39:00,
2013-04-12 15:54:00,38.4,38.0,29.82,SE,140,0.0,8.0,97,0.00,,,0.40,weatherlink.com 1.10,2013-04-12 19:54:00,
2013-04-12 16:12:00,38.8,38.0,29.81,SE,135,0.0,4.0,97,0.00,,,0.40,weatherlink.com 1.10,2013-04-12 20:12:00,
2013-04-12 16:25:00,38.8,38.0,29.81,SE,146,0.0,5.0,97,0.00,,,0.40,weatherlink.com 1.10,2013-04-12 20:25:00,
2013-04-12 16:42:00,38.8,38.0,29.80,ESE,123,2.0,4.0,97,0.00,,,0.40,weatherlink.com 1.10,2013-04-12 20:42:00,
2013-04-12 16:55:00,38.7,38.0,29.80,ESE,111,0.0,3.0,97,0.00,,,0.40,weatherlink.com 1.10,2013-04-12 20:55:00,
2013-04-12 17:12:00,38.7,38.0,29.81,ESE,122,4.0,4.0,97,0.01,,,0.41,weatherlink.com 1.10,2013-04-12 21:12:00,
2013-04-12 17:25:00,38.6,38.0,29.80,ENE,65,2.0,4.0,97,0.01,,,0.41,weatherlink.com 1.10,2013-04-12 21:25:00,
2013-04-12 17:42:00,38.6,38.0,29.80,ESE,119,0.0,7.0,97,0.01,,,0.41,weatherlink.com 1.10,2013-04-12 21:42:00,
2013-04-12 17:55:00,38.6,38.0,29.80,ESE,123,1.0,3.0,97,0.02,,,0.42,weatherlink.com 1.10,2013-04-12 21:55:00,
2013-04-12 18:12:00,38.6,38.0,29.80,ESE,113,1.0,3.0,97,0.01,,,0.42,weatherlink.com 1.10,2013-04-12 22:12:00,
2013-04-12 18:42:00,38.4,38.0,29.80,SE,127,0.0,5.0,97,0.01,,,0.42,weatherlink.com 1.10,2013-04-12 22:42:00,
2013-04-12 18:55:00,38.4,38.0,29.81,East,86,1.0,4.0,97,0.00,,,0.42,weatherlink.com 1.10,2013-04-12 22:55:00,
2013-04-12 19:12:00,38.3,38.0,29.80,ENE,77,2.0,5.0,97,0.00,,,0.42,weatherlink.com 1.10,2013-04-12 23:12:00,
2013-04-12 19:26:00,38.0,37.0,29.80,East,84,1.0,6.0,97,0.00,,,0.42,weatherlink.com 1.10,2013-04-12 23:26:00,
2013-04-12 19:42:00,37.8,37.0,29.79,NE,51,0.0,5.0,97,0.00,,,0.42,weatherlink.com 1.10,2013-04-12 23:42:00,
2013-04-12 20:12:00,37.5,37.0,29.79,ESE,105,2.0,7.0,97,0.00,,,0.42,weatherlink.com 1.10,2013-04-13 00:12:00,
2013-04-12 20:26:00,37.3,37.0,29.79,NE,55,3.0,9.0,97,0.00,,,0.42,weatherlink.com 1.10,2013-04-13 00:26:00,
2013-04-12 20:42:00,37.3,37.0,29.80,ENE,58,0.0,4.0,97,0.00,,,0.42,weatherlink.com 1.10,2013-04-13 00:42:00,
2013-04-12 20:56:00,37.2,37.0,29.80,East,86,0.0,2.0,97,0.00,,,0.42,weatherlink.com 1.10,2013-04-13 00:56:00,
2013-04-12 21:12:00,37.1,36.0,29.81,East,90,0.0,1.0,97,0.00,,,0.42,weatherlink.com 1.10,2013-04-13 01:12:00,
2013-04-12 21:26:00,37.1,36.0,29.82,East,90,0.0,0.0,97,0.00,,,0.42,weatherlink.com 1.10,2013-04-13 01:26:00,
2013-04-12 21:42:00,37.1,36.0,29.82,East,90,0.0,0.0,97,0.00,,,0.42,weatherlink.com 1.10,2013-04-13 01:42:00,
2013-04-12 21:57:00,37.0,36.0,29.82,East,90,0.0,0.0,97,0.00,,,0.42,weatherlink.com 1.10,2013-04-13 01:57:00,
2013-04-12 22:12:00,37.0,36.0,29.82,East,90,0.0,0.0,97,0.00,,,0.42,weatherlink.com 1.10,2013-04-13 02:12:00,
2013-04-12 22:27:00,37.0,36.0,29.83,East,88,0.0,2.0,97,0.00,,,0.42,weatherlink.com 1.10,2013-04-13 02:27:00,
2013-04-12 22:42:00,36.6,36.0,29.82,NE,39,0.0,2.0,97,0.00,,,0.42,weatherlink.com 1.10,2013-04-13 02:42:00,
2013-04-12 22:57:00,36.4,36.0,29.83,NE,39,0.0,1.0,97,0.00,,,0.42,weatherlink.com 1.10,2013-04-13 02:57:00,
2013-04-12 23:12:00,36.1,35.0,29.83,NE,55,0.0,4.0,97,0.01,,,0.43,weatherlink.com 1.10,2013-04-13 03:12:00,
2013-04-12 23:27:00,36.0,35.0,29.84,ENE,65,0.0,1.0,97,0.01,,,0.43,weatherlink.com 1.10,2013-04-13 03:27:00,
2013-04-12 23:43:00,36.0,35.0,29.84,ENE,65,0.0,0.0,97,0.01,,,0.43,weatherlink.com 1.10,2013-04-13 03:43:00,
2013-04-12 23:57:00,36.0,35.0,29.85,ENE,65,0.0,1.0,97,0.01,,,0.43,weatherlink.com 1.10,2013-04-13 03:57:00,